Data for 02/15/2006

Time Sea-Level Adjusted Pressure Absolute Pressure Temperature Relative Humidity Dew Point   
(mb) (inHg) (mb) (inHg) (C) (F) (%) (C) (F)
00:05 1016 30 845 24.95 -10.1 13.9 74 -13.8 7.1
00:10 1016 30 845 24.95 -10.2 13.6 72 -14.3 6.2
00:15 1016 30 845 24.95 -10.3 13.4 69 -14.9 5.1
00:20 1016 30 845 24.95 -10.4 13.4 67 -15.4 4.3
00:25 1016 30 845 24.95 -10.4 13.2 66 -15.5 4
00:30 1016 30 845 24.95 -10.5 13.1 67 -15.5 4.2
00:35 1015 29.97 845 24.95 -10.3 13.5 66 -15.4 4.2
00:40 1016 30 845 24.95 -10.1 13.8 66 -15.4 4.4
00:45 1016 30 845 24.95 -10.3 13.6 66 -15.4 4.3
00:50 1016 30 845 24.95 -9.8 14.3 64 -15.5 4.1
00:55 1015 29.97 845 24.95 -9.2 15.5 62 -15.1 4.8
01:00 1015 29.97 845 24.95 -9 15.9 62 -15 5.1
01:05 1015 29.97 845 24.95 -9 15.8 61 -15.2 4.6
01:10 1015 29.97 845 24.95 -9 15.8 61 -15.1 4.8
01:15 1015 29.97 845 24.95 -8.9 15.9 62 -14.9 5.2
01:20 1015 29.97 845 24.95 -9.2 15.5 64 -14.7 5.5
01:25 1015 29.97 845 24.95 -9.8 14.4 67 -14.8 5.3
01:30 1015 29.97 845 24.95 -9.8 14.4 66 -15 5
01:35 1015 29.97 845 24.95 -9.5 14.9 66 -14.7 5.6
01:40 1015 29.97 845 24.95 -9.6 14.7 67 -14.6 5.7
01:45 1015 29.97 845 24.95 -9.8 14.3 68 -14.8 5.4
01:50 1016 30 845 24.95 -9.8 14.4 68 -14.7 5.6
01:55 1016 30 845 24.95 -9.7 14.5 67 -14.8 5.4
02:00 1016 30 845 24.95 -9.8 14.3 68 -14.7 5.5
02:05 1015 29.97 845 24.95 -9.8 14.5 67 -14.7 5.5
02:10 1015 29.97 845 24.95 -9.7 14.6 67 -14.8 5.4
02:15 1015 29.97 844 24.92 -9.6 14.6 68 -14.5 5.8
02:20 1015 29.97 844 24.92 -9.7 14.6 67 -14.6 5.7
02:25 1015 29.97 844 24.92 -9.7 14.5 69 -14.5 5.9
02:30 1015 29.97 845 24.95 -9.8 14.4 70 -14.3 6.2
02:35 1015 29.97 845 24.95 -9.7 14.5 70 -14.2 6.5
02:40 1015 29.97 845 24.95 -9.9 14.2 72 -14 6.7
02:45 1015 29.97 845 24.95 -10 14 73 -14 6.8
02:50 1015 29.97 845 24.95 -9.9 14.2 71 -14.1 6.5
02:55 1015 29.97 844 24.92 -9.9 14.3 71 -14.2 6.4
03:00 1015 29.97 844 24.92 -9.9 14.2 71 -14.1 6.6
03:05 1015 29.97 844 24.92 -9.9 14.3 71 -14.2 6.4
03:10 1015 29.97 844 24.92 -9.9 14.1 70 -14.4 6.2
03:15 1015 29.97 844 24.92 -10 14 69 -14.6 5.6
03:20 1015 29.97 844 24.92 -9.9 14.1 71 -14.2 6.4
03:25 1015 29.97 844 24.92 -10.1 13.9 72 -14.3 6.3
03:30 1015 29.97 844 24.92 -10 13.9 72 -14.2 6.4
03:35 1015 29.97 844 24.92 -10 14 71 -14.2 6.4
03:40 1015 29.97 844 24.92 -10 14.1 71 -14.2 6.4
03:45 1015 29.97 844 24.92 -10 14 71 -14.3 6.3
03:50 1015 29.97 844 24.92 -10 14 72 -14.1 6.7
03:55 1015 29.97 844 24.92 -10.1 13.8 73 -14.1 6.6
04:00 1015 29.97 844 24.92 -10 14 72 -14.2 6.5
04:05 1015 29.97 844 24.92 -10 14 72 -14.1 6.6
04:10 1015 29.97 844 24.92 -10 14 72 -14.2 6.5
04:15 1015 29.97 844 24.92 -10 14 72 -14.1 6.7
04:20 1015 29.97 844 24.92 -10.1 13.9 72 -14.2 6.5
04:25 1015 29.97 844 24.92 -10.2 13.6 72 -14.4 6
04:30 1015 29.97 844 24.92 -10.3 13.5 70 -14.8 5.4
04:35 1015 29.97 844 24.92 -10.3 13.4 70 -14.8 5.4
04:40 1015 29.97 844 24.92 -10.4 13.4 70 -14.8 5.4
04:45 1014 29.94 844 24.92 -10.4 13.3 70 -14.8 5.3
04:50 1015 29.97 844 24.92 -10.4 13.2 71 -14.7 5.6
04:55 1015 29.97 844 24.92 -10.6 12.8 72 -14.8 5.4
05:00 1015 29.97 844 24.92 -10.8 12.6 73 -14.7 5.5
05:05 1014 29.94 844 24.92 -11 12.3 74 -14.7 5.5
05:10 1014 29.94 844 24.92 -11.2 11.9 75 -14.8 5.4
05:15 1014 29.94 843 24.89 -11.4 11.6 75 -14.9 5.1
05:20 1014 29.94 843 24.89 -11.5 11.4 75 -15 5
05:25 1014 29.94 843 24.89 -11.8 10.7 79 -14.8 5.3
05:30 1014 29.94 843 24.89 -12 10.4 80 -14.9 5.3
05:35 1014 29.94 843 24.89 -11.9 10.5 78 -15.1 4.9
05:40 1014 29.94 843 24.89 -11.9 10.6 77 -15.1 4.9
05:45 1014 29.94 843 24.89 -11.7 11 74 -15.3 4.4
05:50 1014 29.94 843 24.89 -11.5 11.3 74 -15.3 4.4
05:55 1014 29.94 843 24.89 -11.5 11.3 75 -15.2 4.7
06:00 1014 29.94 843 24.89 -11.5 11.2 75 -15.2 4.6
06:05 1014 29.94 843 24.89 -11.6 11.1 76 -15.1 4.8
06:10 1014 29.94 843 24.89 -11.7 11 75 -15.3 4.5
06:15 1014 29.94 843 24.89 -11.8 10.8 75 -15.3 4.5
06:20 1014 29.94 843 24.89 -11.7 10.9 75 -15.3 4.5
06:25 1014 29.94 843 24.89 -11.4 11.4 75 -15.1 4.9
06:30 1014 29.94 843 24.89 -11.2 11.9 74 -15 5
06:35 1014 29.94 843 24.89 -11.1 12.1 74 -14.8 5.4
06:40 1014 29.94 843 24.89 -11.1 12.1 75 -14.8 5.4
06:45 1014 29.94 843 24.89 -11 12.2 75 -14.6 5.7
06:50 1014 29.94 843 24.89 -11 12.2 75 -14.6 5.8
06:55 1014 29.94 843 24.89 -11 12.2 76 -14.4 6.1
07:00 1014 29.94 843 24.89 -11 12.2 75 -14.5 5.8
07:05 1014 29.94 843 24.89 -11 12.2 75 -14.6 5.7
07:10 1013 29.91 843 24.89 -11.1 12.1 76 -14.5 5.9
07:15 1014 29.94 843 24.89 -11.1 12.1 75 -14.7 5.6
07:20 1014 29.94 843 24.89 -11.1 12 75 -14.8 5.4
07:25 1014 29.94 843 24.89 -11.1 12.1 74 -14.9 5.3
07:30 1014 29.94 843 24.89 -11.1 12 73 -15 5.1
07:35 1014 29.94 843 24.89 -11.1 12.1 73 -15 5
07:40 1014 29.94 843 24.89 -11.1 12 74 -14.9 5.2
07:45 1014 29.94 843 24.89 -11.1 12.1 75 -14.7 5.6
07:50 1014 29.94 843 24.89 -11.2 11.9 75 -14.7 5.5
07:55 1014 29.94 843 24.89 -11.1 12 75 -14.8 5.4
08:00 1014 29.94 843 24.89 -11.1 12 75 -14.7 5.6
08:05 1014 29.94 843 24.89 -11.1 12.1 75 -14.7 5.6
08:10 1014 29.94 843 24.89 -11.1 12 76 -14.6 5.8
08:15 1014 29.94 843 24.89 -11.1 12.1 76 -14.5 5.8
08:20 1014 29.94 843 24.89 -11.1 12.1 76 -14.4 6
08:25 1014 29.94 843 24.89 -11 12.2 75 -14.6 5.8
08:30 1014 29.94 843 24.89 -11 12.2 76 -14.4 6.1
08:35 1014 29.94 843 24.89 -10.9 12.5 75 -14.5 5.8
08:40 1014 29.94 843 24.89 -10.8 12.5 74 -14.5 5.9
08:45 1014 29.94 843 24.89 -10.8 12.6 74 -14.5 5.8
08:50 1014 29.94 843 24.89 -10.8 12.6 75 -14.5 6
08:55 1014 29.94 843 24.89 -10.8 12.5 76 -14.3 6.3
09:00 1014 29.94 843 24.89 -10.9 12.5 76 -14.3 6.2
09:05 1014 29.94 843 24.89 -10.9 12.3 76 -14.3 6.2
09:10 1014 29.94 843 24.89 -10.9 12.3 77 -14.3 6.3
09:15 1014 29.94 843 24.89 -10.8 12.5 74 -14.6 5.7
09:20 1014 29.94 843 24.89 -10.9 12.5 74 -14.6 5.7
09:25 1014 29.94 843 24.89 -10.8 12.6 74 -14.5 5.9
09:30 1014 29.94 843 24.89 -10.5 13 73 -14.4 6.1
09:35 1014 29.94 843 24.89 -10.4 13.2 71 -14.8 5.3
09:40 1014 29.94 843 24.89 -10.4 13.2 69 -15.1 4.7
09:45 1014 29.94 843 24.89 -10.4 13.2 68 -15.2 4.6
09:50 1014 29.94 843 24.89 -10.5 13.1 69 -15.1 4.7
09:55 1013 29.91 843 24.89 -10.4 13.3 68 -15.3 4.5
10:00 1014 29.94 843 24.89 -10.4 13.3 68 -15.2 4.6
10:05 1013 29.91 843 24.89 -10 14.1 66 -15.2 4.7
10:10 1013 29.91 843 24.89 -10.1 13.9 65 -15.4 4.3
10:15 1013 29.91 843 24.89 -9.9 14.1 64 -15.4 4.2
10:20 1013 29.91 843 24.89 -9.8 14.3 65 -15.3 4.5
10:25 1013 29.91 842 24.86 -9.9 14.1 67 -15 4.9
10:30 1013 29.91 842 24.86 -9.8 14.3 65 -15.2 4.7
10:35 1013 29.91 842 24.86 -10 14 65 -15.4 4.3
10:40 1013 29.91 842 24.86 -10.1 13.9 67 -15.1 4.9
10:45 1013 29.91 842 24.86 -9.8 14.5 66 -14.9 5.1
10:50 1013 29.91 842 24.86 -10.2 13.6 67 -15.2 4.7
10:55 1013 29.91 842 24.86 -10.1 13.8 67 -15.1 4.9
11:00 1013 29.91 842 24.86 -10.2 13.6 68 -15.1 4.9
11:05 1013 29.91 843 24.89 -10 14 66 -15.3 4.5
11:10 1013 29.91 843 24.89 -10.3 13.4 69 -15 5
11:15 1013 29.91 842 24.86 -10.1 13.9 68 -15 5.1
11:20 1013 29.91 842 24.86 -9.9 14.1 68 -14.8 5.4
11:25 1013 29.91 842 24.86 -10 13.9 67 -15.2 4.7
11:30 1013 29.91 842 24.86 -10.4 13.3 69 -15.1 4.8
11:35 1013 29.91 842 24.86 -10.3 13.5 67 -15.4 4.3
11:40 1013 29.91 842 24.86 -10 14.1 64 -15.5 4
11:45 1013 29.91 842 24.86 -9.8 14.4 65 -15.2 4.6
11:50 1013 29.91 842 24.86 -9.7 14.6 63 -15.5 4
11:55 1013 29.91 842 24.86 -9.7 14.5 63 -15.5 4
12:00 1013 29.91 842 24.86 -9.8 14.5 63 -15.6 3.9
12:05 1013 29.91 842 24.86 -9.4 15.1 62 -15.3 4.4
12:10 1013 29.91 842 24.86 -9.1 15.6 62 -15.1 4.8
12:15 1013 29.91 842 24.86 -9.3 15.4 63 -15.1 4.7
12:20 1013 29.91 842 24.86 -9.5 15 61 -15.7 3.7
12:25 1013 29.91 842 24.86 -9.3 15.3 64 -14.8 5.3
12:30 1013 29.91 842 24.86 -8.9 15.9 61 -15.1 4.8
12:35 1012 29.88 842 24.86 -9.3 15.3 64 -14.9 5.1
12:40 1012 29.88 842 24.86 -8.7 16.3 63 -14.5 5.8
12:45 1012 29.88 842 24.86 -8.9 16.1 62 -14.8 5.4
12:50 1012 29.88 842 24.86 -9.2 15.4 64 -14.9 5.2
12:55 1012 29.88 841 24.83 -9.1 15.7 62 -15.1 4.7
13:00 1012 29.88 841 24.83 -9.1 15.6 62 -15 4.9
13:05 1012 29.88 841 24.83 -8.7 16.3 60 -15.1 4.9
13:10 1012 29.88 841 24.83 -8.7 16.3 60 -15.2 4.6
13:15 1012 29.88 841 24.83 -8.9 16 61 -15.1 4.8
13:20 1012 29.88 841 24.83 -9 15.9 61 -15.2 4.7
13:25 1012 29.88 841 24.83 -9 15.9 63 -14.8 5.3
13:30 1012 29.88 841 24.83 -8.9 15.9 61 -15.1 4.8
13:35 1012 29.88 841 24.83 -9.3 15.3 61 -15.5 4.2
13:40 1012 29.88 841 24.83 -9.4 15.1 61 -15.6 4
13:45 1012 29.88 841 24.83 -8.7 16.4 59 -15.3 4.5
13:50 1012 29.88 841 24.83 -8.7 16.3 61 -14.9 5.2
13:55 1012 29.88 841 24.83 -8.5 16.8 60 -14.8 5.3
14:00 1012 29.88 841 24.83 -8.3 17 48 -17.5 0.5
14:05 1012 29.88 841 24.83 -7.8 17.9 57 -14.9 5.2
14:10 1012 29.88 841 24.83 -8.4 16.9 64 -14.1 6.6
14:15 1012 29.88 841 24.83 -8.7 16.3 48 -17.9 -0.2
14:20 1012 29.88 841 24.83 -8.5 16.6 57 -15.6 3.9
14:25 1012 29.88 841 24.83 -8.5 16.6 57 -15.6 4
14:30 1012 29.88 841 24.83 -8.7 16.3 59 -15.4 4.2
14:35 1012 29.88 841 24.83 -8.9 16 58 -15.8 3.5
14:40 1012 29.88 841 24.83 -9 15.7 59 -15.6 3.9
14:45 1012 29.88 841 24.83 -8.9 16.1 56 -16.2 2.9
14:50 1012 29.88 841 24.83 -8.9 16 55 -16.4 2.4
14:55 1012 29.88 841 24.83 -8.9 16.1 55 -16.4 2.4
15:00 1012 29.88 842 24.86 -9.1 15.6 62 -15.2 4.7
15:05 1012 29.88 841 24.83 -9.2 15.4 59 -15.9 3.4
15:10 1012 29.88 841 24.83 -9.3 15.3 61 -15.5 4
15:15 1012 29.88 841 24.83 -9.2 15.4 58 -16.1 3
15:20 1012 29.88 842 24.86 -9.2 15.4 58 -16 3.2
15:25 1012 29.88 842 24.86 -9.4 15.2 57 -16.3 2.7
15:30 1012 29.88 842 24.86 -9.4 15 57 -16.4 2.5
15:35 1012 29.88 842 24.86 -9.4 15 56 -16.6 2.1
15:40 1012 29.88 842 24.86 -9.7 14.5 56 -16.9 1.6
15:45 1012 29.88 842 24.86 -9.7 14.5 55 -17.1 1.3
15:50 1012 29.88 842 24.86 -9.7 14.6 53 -17.5 0.6
15:55 1012 29.88 842 24.86 -9.7 14.6 52 -17.8 -0
16:00 1013 29.91 842 24.86 -9.7 14.5 53 -17.7 0.1
16:05 1012 29.88 842 24.86 -9.9 14.3 52 -17.9 -0.2
16:10 1012 29.88 842 24.86 -9.8 14.4 50 -18.4 -1
16:15 1012 29.88 842 24.86 -9.9 14.1 50 -18.6 -1.5
16:20 1012 29.88 842 24.86 -9.8 14.4 48 -19 -2.1
16:25 1012 29.88 842 24.86 -9.5 14.9 47 -18.8 -1.9
16:30 1013 29.91 842 24.86 -9.7 14.6 46 -19.3 -2.7
16:35 1013 29.91 842 24.86 -9.9 14.2 48 -19 -2.2
16:40 1013 29.91 842 24.86 -9.9 14.2 48 -18.9 -2.1
16:45 1013 29.91 842 24.86 -9.9 14.3 47 -19.1 -2.3
16:50 1013 29.91 842 24.86 -10.1 13.7 48 -19.2 -2.6
16:55 1013 29.91 842 24.86 -10.3 13.5 48 -19.2 -2.6
17:00 1013 29.91 842 24.86 -10.3 13.5 49 -19 -2.3
17:05 1013 29.91 842 24.86 -10.3 13.5 50 -18.8 -1.8
17:10 1013 29.91 842 24.86 -10.4 13.4 51 -18.6 -1.4
17:15 1013 29.91 842 24.86 -10.5 13 53 -18.5 -1.3
17:20 1013 29.91 842 24.86 -10.7 12.7 53 -18.5 -1.2
17:25 1013 29.91 842 24.86 -10.7 12.8 54 -18.3 -1
17:30 1013 29.91 842 24.86 -10.9 12.5 55 -18.2 -0.7
17:35 1013 29.91 842 24.86 -11.2 11.9 56 -18.3 -0.9
17:40 1013 29.91 842 24.86 -11.2 11.8 57 -18.2 -0.7
17:45 1013 29.91 842 24.86 -11.4 11.6 57 -18.2 -0.8
17:50 1013 29.91 842 24.86 -11.6 11.2 58 -18.2 -0.8
17:55 1013 29.91 842 24.86 -11.7 11 58 -18.3 -1
18:00 1013 29.91 842 24.86 -11.8 10.9 58 -18.4 -1.1
18:05 1013 29.91 842 24.86 -11.8 10.7 59 -18.4 -1.1
18:10 1013 29.91 842 24.86 -11.8 10.7 58 -18.5 -1.3
18:15 1013 29.91 842 24.86 -11.9 10.5 59 -18.5 -1.2
18:20 1013 29.91 842 24.86 -11.9 10.6 59 -18.5 -1.2
18:25 1013 29.91 842 24.86 -12 10.5 59 -18.4 -1.2
18:30 1013 29.91 843 24.89 -11.9 10.5 59 -18.4 -1.2
18:35 1013 29.91 843 24.89 -12 10.4 59 -18.4 -1.1
18:40 1014 29.94 843 24.89 -12.1 10.3 59 -18.4 -1.2
18:45 1014 29.94 843 24.89 -12.2 10.1 60 -18.4 -1.1
18:50 1014 29.94 843 24.89 -12.1 10.2 60 -18.4 -1.1
18:55 1014 29.94 843 24.89 -12.1 10.2 61 -18.2 -0.8
19:00 1014 29.94 843 24.89 -12.2 10 60 -18.4 -1.2
19:05 1014 29.94 843 24.89 -12.3 9.8 62 -18.2 -0.7
19:10 1014 29.94 843 24.89 -12.3 9.9 62 -18.1 -0.6
19:15 1014 29.94 843 24.89 -12.4 9.8 62 -18.2 -0.8
19:20 1014 29.94 843 24.89 -12.3 9.9 63 -18 -0.4
19:25 1014 29.94 843 24.89 -12.4 9.7 62 -18.2 -0.8
19:30 1014 29.94 843 24.89 -12.4 9.7 62 -18.3 -1
19:35 1014 29.94 844 24.92 -12.5 9.6 63 -18.2 -0.7
19:40 1014 29.94 844 24.92 -12.5 9.5 67 -17.5 0.5
19:45 1014 29.94 844 24.92 -12.7 9.2 69 -17.2 1.1
19:50 1015 29.97 844 24.92 -12.7 9.1 68 -17.6 0.4
19:55 1015 29.97 844 24.92 -12.7 9.1 67 -17.7 0.2
20:00 1015 29.97 844 24.92 -12.9 8.9 66 -17.9 -0.1
20:05 1015 29.97 844 24.92 -12.9 8.8 67 -17.9 -0.2
20:10 1015 29.97 844 24.92 -12.9 8.8 66 -18 -0.4
20:15 1015 29.97 844 24.92 -12.9 8.8 65 -18.1 -0.6
20:20 1015 29.97 844 24.92 -12.8 8.9 63 -18.5 -1.2
20:25 1015 29.97 844 24.92 -12.8 9 63 -18.5 -1.3
20:30 1015 29.97 844 24.92 -12.8 9 61 -18.9 -2
20:35 1015 29.97 844 24.92 -12.8 9 60 -19 -2.2
20:40 1015 29.97 844 24.92 -12.8 9 60 -19.1 -2.3
20:45 1015 29.97 844 24.92 -12.9 8.8 61 -19 -2.2
20:50 1015 29.97 844 24.92 -13.1 8.4 61 -19.1 -2.4
20:55 1015 29.97 844 24.92 -13.3 8 63 -19 -2.2
21:00 1015 29.97 844 24.92 -13.5 7.7 63 -19.1 -2.4
21:05 1015 29.97 844 24.92 -13.7 7.3 64 -19.2 -2.6
21:10 1015 29.97 844 24.92 -13.9 7 63 -19.4 -3
21:15 1015 29.97 844 24.92 -14 6.8 64 -19.3 -2.8
21:20 1015 29.97 844 24.92 -14.1 6.7 66 -19.2 -2.5
21:25 1015 29.97 844 24.92 -14.3 6.4 67 -19.2 -2.5
21:30 1015 29.97 844 24.92 -14.5 5.9 66 -19.5 -3.1
21:35 1015 29.97 844 24.92 -14.6 5.7 65 -19.8 -3.6
21:40 1015 29.97 844 24.92 -14.7 5.6 66 -19.7 -3.5
21:45 1015 29.97 844 24.92 -14.8 5.4 66 -19.8 -3.6
21:50 1015 29.97 845 24.95 -14.6 5.7 65 -19.8 -3.6
21:55 1015 29.97 845 24.95 -14.6 5.8 65 -19.8 -3.6
22:00 1015 29.97 845 24.95 -14.6 5.7 65 -19.9 -3.8
22:05 1016 30 845 24.95 -14.7 5.6 66 -19.7 -3.4
22:10 1015 29.97 845 24.95 -14.6 5.8 65 -19.7 -3.5
22:15 1015 29.97 845 24.95 -14.7 5.6 66 -19.8 -3.6
22:20 1015 29.97 845 24.95 -14.7 5.5 65 -19.8 -3.7
22:25 1016 30 845 24.95 -14.8 5.4 66 -19.8 -3.7
22:30 1016 30 845 24.95 -14.8 5.4 66 -19.8 -3.6
22:35 1016 30 845 24.95 -14.6 5.6 66 -19.6 -3.3
22:40 1016 30 845 24.95 -14.6 5.8 67 -19.4 -3
22:45 1016 30 845 24.95 -14.5 5.9 68 -19.2 -2.6
22:50 1016 30 845 24.95 -14.5 6 68 -19.1 -2.4
22:55 1016 30 845 24.95 -14.5 6 67 -19.3 -2.8
23:00 1016 30 845 24.95 -14.8 5.3 69 -19.4 -2.9
23:05 1016 30 845 24.95 -14.9 5.1 71 -19.1 -2.4
23:10 1016 30 845 24.95 -14.9 5.3 72 -18.8 -1.9
23:15 1016 30 845 24.95 -14.9 5.2 73 -18.8 -1.8
23:20 1016 30 845 24.95 -15 5.1 73 -18.8 -1.9
23:25 1016 30 845 24.95 -15 5 73 -18.9 -2
23:30 1016 30 845 24.95 -15 4.9 73 -18.9 -2
23:35 1016 30 845 24.95 -14.9 5.2 73 -18.8 -1.8
23:40 1016 30 845 24.95 -14.8 5.4 71 -18.9 -2
23:45 1016 30 845 24.95 -14.8 5.4 72 -18.8 -1.8
23:50 1016 30 845 24.95 -14.8 5.3 72 -18.9 -2
23:55 1016 30 846 24.98 -14.7 5.5 72 -18.6 -1.5
24:00 1016 30 846 24.98 -14.6 5.8 72 -18.6 -1.5